sensor_id;sensor_type;location;lat;lon;timestamp;temperature;humidity
2314;DHT22;42279;51.388;7.000;2023-06-26T00:01:14;24.50;99.90
2314;DHT22;42279;51.388;7.000;2023-06-26T00:03:40;24.50;99.90
2314;DHT22;42279;51.388;7.000;2023-06-26T00:06:06;24.50;99.90
2314;DHT22;42279;51.388;7.000;2023-06-26T00:08:31;24.40;99.90
2314;DHT22;42279;51.388;7.000;2023-06-26T00:10:59;24.40;99.90
2314;DHT22;42279;51.388;7.000;2023-06-26T00:13:25;24.40;99.90
2314;DHT22;42279;51.388;7.000;2023-06-26T00:15:51;24.50;99.90
2314;DHT22;42279;51.388;7.000;2023-06-26T00:18:21;24.40;99.90
2314;DHT22;42279;51.388;7.000;2023-06-26T00:20:47;24.40;99.90
2314;DHT22;42279;51.388;7.000;2023-06-26T00:23:13;24.40;99.90
2314;DHT22;42279;51.388;7.000;2023-06-26T00:25:42;24.40;99.90
2314;DHT22;42279;51.388;7.000;2023-06-26T00:28:08;24.40;99.90
2314;DHT22;42279;51.388;7.000;2023-06-26T00:30:34;24.40;99.90
2314;DHT22;42279;51.388;7.000;2023-06-26T00:32:59;24.40;99.90
2314;DHT22;42279;51.388;7.000;2023-06-26T00:35:25;24.40;99.90
2314;DHT22;42279;51.388;7.000;2023-06-26T00:37:51;24.40;99.90
2314;DHT22;42279;51.388;7.000;2023-06-26T00:40:17;24.40;99.90
2314;DHT22;42279;51.388;7.000;2023-06-26T00:42:42;24.40;99.90
2314;DHT22;42279;51.388;7.000;2023-06-26T00:45:08;24.30;99.90
2314;DHT22;42279;51.388;7.000;2023-06-26T00:47:34;24.20;99.90
2314;DHT22;42279;51.388;7.000;2023-06-26T00:50:01;24.20;99.90
2314;DHT22;42279;51.388;7.000;2023-06-26T00:52:27;24.20;99.90
2314;DHT22;42279;51.388;7.000;2023-06-26T00:54:53;24.20;99.90
2314;DHT22;42279;51.388;7.000;2023-06-26T00:57:18;24.00;99.90
2314;DHT22;42279;51.388;7.000;2023-06-26T00:59:44;23.90;99.90
2314;DHT22;42279;51.388;7.000;2023-06-26T01:02:10;24.00;99.90
2314;DHT22;42279;51.388;7.000;2023-06-26T01:04:36;23.90;99.90
2314;DHT22;42279;51.388;7.000;2023-06-26T01:07:02;23.90;99.90
2314;DHT22;42279;51.388;7.000;2023-06-26T01:09:30;23.80;99.90
2314;DHT22;42279;51.388;7.000;2023-06-26T01:11:56;23.80;99.90
2314;DHT22;42279;51.388;7.000;2023-06-26T01:14:26;23.70;99.90
2314;DHT22;42279;51.388;7.000;2023-06-26T01:16:52;23.60;99.90
2314;DHT22;42279;51.388;7.000;2023-06-26T01:19:24;23.60;99.90
2314;DHT22;42279;51.388;7.000;2023-06-26T01:22:20;23.50;99.90
2314;DHT22;42279;51.388;7.000;2023-06-26T01:25:19;23.40;99.90
2314;DHT22;42279;51.388;7.000;2023-06-26T01:27:48;23.40;99.90
2314;DHT22;42279;51.388;7.000;2023-06-26T01:30:16;23.50;99.90
2314;DHT22;42279;51.388;7.000;2023-06-26T01:32:45;23.40;99.90
2314;DHT22;42279;51.388;7.000;2023-06-26T01:35:12;23.40;99.90
2314;DHT22;42279;51.388;7.000;2023-06-26T01:37:39;23.30;99.90
2314;DHT22;42279;51.388;7.000;2023-06-26T01:40:05;23.30;99.90
2314;DHT22;42279;51.388;7.000;2023-06-26T01:42:36;23.20;99.90
2314;DHT22;42279;51.388;7.000;2023-06-26T01:45:11;23.20;99.90
2314;DHT22;42279;51.388;7.000;2023-06-26T01:47:40;23.10;99.90
2314;DHT22;42279;51.388;7.000;2023-06-26T01:50:18;23.10;99.90
2314;DHT22;42279;51.388;7.000;2023-06-26T01:55:45;22.80;99.90
2314;DHT22;42279;51.388;7.000;2023-06-26T01:58:13;22.80;99.90
2314;DHT22;42279;51.388;7.000;2023-06-26T02:00:40;22.80;99.90
2314;DHT22;42279;51.388;7.000;2023-06-26T02:03:06;22.70;99.90
2314;DHT22;42279;51.388;7.000;2023-06-26T02:05:32;22.70;99.90
2314;DHT22;42279;51.388;7.000;2023-06-26T02:07:59;22.70;99.90
2314;DHT22;42279;51.388;7.000;2023-06-26T02:10:33;22.60;99.90
2314;DHT22;42279;51.388;7.000;2023-06-26T02:13:00;22.60;99.90
2314;DHT22;42279;51.388;7.000;2023-06-26T02:15:26;22.60;99.90
2314;DHT22;42279;51.388;7.000;2023-06-26T02:17:51;22.50;99.90
2314;DHT22;42279;51.388;7.000;2023-06-26T02:20:17;22.50;99.90
2314;DHT22;42279;51.388;7.000;2023-06-26T02:22:45;22.50;99.90
2314;DHT22;42279;51.388;7.000;2023-06-26T02:25:11;22.50;99.90
2314;DHT22;42279;51.388;7.000;2023-06-26T02:27:40;22.50;99.90
2314;DHT22;42279;51.388;7.000;2023-06-26T02:30:07;22.40;99.90
2314;DHT22;42279;51.388;7.000;2023-06-26T02:32:33;22.40;99.90
2314;DHT22;42279;51.388;7.000;2023-06-26T02:34:58;22.40;99.90
2314;DHT22;42279;51.388;7.000;2023-06-26T02:37:24;22.40;99.90
2314;DHT22;42279;51.388;7.000;2023-06-26T02:39:50;22.40;99.90
2314;DHT22;42279;51.388;7.000;2023-06-26T02:42:15;22.40;99.90
2314;DHT22;42279;51.388;7.000;2023-06-26T02:44:41;22.50;99.90
2314;DHT22;42279;51.388;7.000;2023-06-26T02:47:07;22.50;99.90
2314;DHT22;42279;51.388;7.000;2023-06-26T02:49:33;22.60;99.90
2314;DHT22;42279;51.388;7.000;2023-06-26T02:51:59;22.60;99.90
2314;DHT22;42279;51.388;7.000;2023-06-26T02:54:25;22.60;99.90
2314;DHT22;42279;51.388;7.000;2023-06-26T02:56:52;22.50;99.90
2314;DHT22;42279;51.388;7.000;2023-06-26T02:59:20;22.50;99.90
2314;DHT22;42279;51.388;7.000;2023-06-26T03:01:46;22.60;99.90
2314;DHT22;42279;51.388;7.000;2023-06-26T03:04:12;22.70;99.90
2314;DHT22;42279;51.388;7.000;2023-06-26T03:06:38;22.70;99.90
2314;DHT22;42279;51.388;7.000;2023-06-26T03:09:19;22.80;99.90
2314;DHT22;42279;51.388;7.000;2023-06-26T03:11:54;22.80;99.90
2314;DHT22;42279;51.388;7.000;2023-06-26T03:14:21;22.80;99.90
2314;DHT22;42279;51.388;7.000;2023-06-26T03:16:48;22.80;99.90
2314;DHT22;42279;51.388;7.000;2023-06-26T03:19:16;22.80;99.90
2314;DHT22;42279;51.388;7.000;2023-06-26T03:21:42;22.90;99.90
2314;DHT22;42279;51.388;7.000;2023-06-26T03:24:07;23.00;99.90
2314;DHT22;42279;51.388;7.000;2023-06-26T03:26:42;23.00;99.90
2314;DHT22;42279;51.388;7.000;2023-06-26T03:29:09;23.00;99.90
2314;DHT22;42279;51.388;7.000;2023-06-26T03:31:35;23.10;99.90
2314;DHT22;42279;51.388;7.000;2023-06-26T03:34:05;23.10;99.90
2314;DHT22;42279;51.388;7.000;2023-06-26T03:36:30;23.10;99.90
2314;DHT22;42279;51.388;7.000;2023-06-26T03:38:57;23.20;99.90
2314;DHT22;42279;51.388;7.000;2023-06-26T03:41:23;23.20;99.90
2314;DHT22;42279;51.388;7.000;2023-06-26T03:43:49;23.20;99.90
2314;DHT22;42279;51.388;7.000;2023-06-26T03:46:18;23.10;99.90
2314;DHT22;42279;51.388;7.000;2023-06-26T03:48:49;23.10;99.90
2314;DHT22;42279;51.388;7.000;2023-06-26T03:51:15;23.00;99.90
2314;DHT22;42279;51.388;7.000;2023-06-26T03:53:41;23.10;99.90
2314;DHT22;42279;51.388;7.000;2023-06-26T03:56:06;23.20;99.90
2314;DHT22;42279;51.388;7.000;2023-06-26T03:58:33;23.20;99.90
2314;DHT22;42279;51.388;7.000;2023-06-26T04:00:59;23.10;99.90
2314;DHT22;42279;51.388;7.000;2023-06-26T04:03:25;23.20;99.90
2314;DHT22;42279;51.388;7.000;2023-06-26T04:05:51;23.10;99.90
2314;DHT22;42279;51.388;7.000;2023-06-26T04:08:20;23.10;99.90
2314;DHT22;42279;51.388;7.000;2023-06-26T04:10:48;23.10;99.90
2314;DHT22;42279;51.388;7.000;2023-06-26T04:13:17;23.10;99.90
2314;DHT22;42279;51.388;7.000;2023-06-26T04:15:42;23.10;99.90
2314;DHT22;42279;51.388;7.000;2023-06-26T04:18:11;23.10;99.90
2314;DHT22;42279;51.388;7.000;2023-06-26T04:21:11;23.10;99.90
2314;DHT22;42279;51.388;7.000;2023-06-26T04:23:40;23.10;99.90
2314;DHT22;42279;51.388;7.000;2023-06-26T04:26:14;23.20;99.90
2314;DHT22;42279;51.388;7.000;2023-06-26T04:29:03;23.10;99.90
2314;DHT22;42279;51.388;7.000;2023-06-26T04:31:56;23.10;99.90
2314;DHT22;42279;51.388;7.000;2023-06-26T04:34:38;22.90;99.90
2314;DHT22;42279;51.388;7.000;2023-06-26T04:37:13;23.00;99.90
2314;DHT22;42279;51.388;7.000;2023-06-26T04:39:57;23.20;99.90
2314;DHT22;42279;51.388;7.000;2023-06-26T04:42:24;23.20;99.90
2314;DHT22;42279;51.388;7.000;2023-06-26T04:45:06;23.40;99.90
2314;DHT22;42279;51.388;7.000;2023-06-26T04:47:33;23.50;99.90
2314;DHT22;42279;51.388;7.000;2023-06-26T04:50:05;23.60;99.90
2314;DHT22;42279;51.388;7.000;2023-06-26T04:52:45;23.80;99.90
2314;DHT22;42279;51.388;7.000;2023-06-26T04:55:15;23.80;99.90
2314;DHT22;42279;51.388;7.000;2023-06-26T04:57:48;23.90;99.90
2314;DHT22;42279;51.388;7.000;2023-06-26T05:00:14;24.10;99.90
2314;DHT22;42279;51.388;7.000;2023-06-26T05:06:00;24.30;99.90
2314;DHT22;42279;51.388;7.000;2023-06-26T05:08:38;24.50;99.90
2314;DHT22;42279;51.388;7.000;2023-06-26T05:11:29;24.50;99.90
2314;DHT22;42279;51.388;7.000;2023-06-26T05:13:55;24.40;99.90
2314;DHT22;42279;51.388;7.000;2023-06-26T05:16:20;24.50;99.90
2314;DHT22;42279;51.388;7.000;2023-06-26T05:18:46;24.50;99.90
2314;DHT22;42279;51.388;7.000;2023-06-26T05:21:11;24.30;99.90
2314;DHT22;42279;51.388;7.000;2023-06-26T05:23:37;24.30;99.90
2314;DHT22;42279;51.388;7.000;2023-06-26T05:26:03;24.20;99.90
2314;DHT22;42279;51.388;7.000;2023-06-26T05:28:30;24.40;99.90
2314;DHT22;42279;51.388;7.000;2023-06-26T05:30:59;24.70;99.90
2314;DHT22;42279;51.388;7.000;2023-06-26T05:33:26;25.00;99.90
2314;DHT22;42279;51.388;7.000;2023-06-26T05:35:52;25.10;99.90
2314;DHT22;42279;51.388;7.000;2023-06-26T05:38:19;25.10;99.90
2314;DHT22;42279;51.388;7.000;2023-06-26T05:40:47;25.30;99.90
2314;DHT22;42279;51.388;7.000;2023-06-26T05:43:13;24.80;99.90
2314;DHT22;42279;51.388;7.000;2023-06-26T05:45:40;24.40;99.90
2314;DHT22;42279;51.388;7.000;2023-06-26T05:48:05;24.20;99.90
2314;DHT22;42279;51.388;7.000;2023-06-26T05:50:31;24.00;99.90
2314;DHT22;42279;51.388;7.000;2023-06-26T05:52:57;23.70;99.90
2314;DHT22;42279;51.388;7.000;2023-06-26T05:55:26;23.40;99.90
2314;DHT22;42279;51.388;7.000;2023-06-26T05:57:52;23.30;99.90
2314;DHT22;42279;51.388;7.000;2023-06-26T06:00:19;23.60;99.90
2314;DHT22;42279;51.388;7.000;2023-06-26T06:02:45;24.20;99.90
2314;DHT22;42279;51.388;7.000;2023-06-26T06:05:11;24.60;99.90
2314;DHT22;42279;51.388;7.000;2023-06-26T06:07:36;25.00;99.90
2314;DHT22;42279;51.388;7.000;2023-06-26T06:10:03;25.40;99.90
2314;DHT22;42279;51.388;7.000;2023-06-26T06:12:29;25.50;99.90
2314;DHT22;42279;51.388;7.000;2023-06-26T06:14:55;25.80;99.70
2314;DHT22;42279;51.388;7.000;2023-06-26T06:17:21;25.50;99.80
2314;DHT22;42279;51.388;7.000;2023-06-26T06:19:47;25.70;99.10
2314;DHT22;42279;51.388;7.000;2023-06-26T06:22:13;25.80;99.20
2314;DHT22;42279;51.388;7.000;2023-06-26T06:24:39;25.90;98.40
2314;DHT22;42279;51.388;7.000;2023-06-26T06:27:04;26.00;99.90
2314;DHT22;42279;51.388;7.000;2023-06-26T06:29:30;26.10;99.90
2314;DHT22;42279;51.388;7.000;2023-06-26T06:31:56;26.10;99.90
2314;DHT22;42279;51.388;7.000;2023-06-26T06:34:22;25.60;99.90
2314;DHT22;42279;51.388;7.000;2023-06-26T06:36:48;24.90;99.90
2314;DHT22;42279;51.388;7.000;2023-06-26T06:39:15;24.60;99.90
2314;DHT22;42279;51.388;7.000;2023-06-26T06:41:41;24.60;99.90
2314;DHT22;42279;51.388;7.000;2023-06-26T06:44:06;24.30;99.90
2314;DHT22;42279;51.388;7.000;2023-06-26T06:46:32;24.00;99.90
2314;DHT22;42279;51.388;7.000;2023-06-26T06:48:57;23.90;99.90
2314;DHT22;42279;51.388;7.000;2023-06-26T06:51:23;24.20;99.90
2314;DHT22;42279;51.388;7.000;2023-06-26T06:53:48;24.80;99.90
2314;DHT22;42279;51.388;7.000;2023-06-26T06:56:14;25.40;99.90
2314;DHT22;42279;51.388;7.000;2023-06-26T06:58:39;25.80;99.90
2314;DHT22;42279;51.388;7.000;2023-06-26T07:01:09;26.30;98.20
2314;DHT22;42279;51.388;7.000;2023-06-26T07:03:34;26.60;97.80
2314;DHT22;42279;51.388;7.000;2023-06-26T07:06:00;27.10;96.50
2314;DHT22;42279;51.388;7.000;2023-06-26T07:08:26;27.30;95.30
2314;DHT22;42279;51.388;7.000;2023-06-26T07:10:52;27.30;94.50
2314;DHT22;42279;51.388;7.000;2023-06-26T07:13:17;27.00;95.00
2314;DHT22;42279;51.388;7.000;2023-06-26T07:15:43;27.10;94.50
2314;DHT22;42279;51.388;7.000;2023-06-26T07:18:09;26.60;94.80
2314;DHT22;42279;51.388;7.000;2023-06-26T07:20:34;26.60;94.90
2314;DHT22;42279;51.388;7.000;2023-06-26T07:23:00;26.40;95.40
2314;DHT22;42279;51.388;7.000;2023-06-26T07:25:25;26.60;94.80
2314;DHT22;42279;51.388;7.000;2023-06-26T07:27:51;27.00;94.70
2314;DHT22;42279;51.388;7.000;2023-06-26T07:30:17;27.00;94.70
2314;DHT22;42279;51.388;7.000;2023-06-26T07:32:45;27.40;93.50
2314;DHT22;42279;51.388;7.000;2023-06-26T07:35:10;27.50;93.30
2314;DHT22;42279;51.388;7.000;2023-06-26T07:37:36;27.20;93.60
2314;DHT22;42279;51.388;7.000;2023-06-26T07:40:02;27.30;94.30
2314;DHT22;42279;51.388;7.000;2023-06-26T07:42:28;27.90;93.20
2314;DHT22;42279;51.388;7.000;2023-06-26T07:44:53;27.90;92.30
2314;DHT22;42279;51.388;7.000;2023-06-26T07:47:19;27.80;92.70
2314;DHT22;42279;51.388;7.000;2023-06-26T07:49:44;28.60;91.20
2314;DHT22;42279;51.388;7.000;2023-06-26T07:52:10;29.30;88.30
2314;DHT22;42279;51.388;7.000;2023-06-26T07:54:36;29.20;84.50
2314;DHT22;42279;51.388;7.000;2023-06-26T07:57:04;29.10;85.40
2314;DHT22;42279;51.388;7.000;2023-06-26T07:59:32;28.80;87.30
2314;DHT22;42279;51.388;7.000;2023-06-26T08:01:58;29.40;83.30
2314;DHT22;42279;51.388;7.000;2023-06-26T08:04:26;29.20;81.90
2314;DHT22;42279;51.388;7.000;2023-06-26T08:06:53;28.40;85.70
2314;DHT22;42279;51.388;7.000;2023-06-26T08:09:20;29.00;85.20
2314;DHT22;42279;51.388;7.000;2023-06-26T08:11:47;29.70;81.80
2314;DHT22;42279;51.388;7.000;2023-06-26T08:14:12;30.00;79.80
2314;DHT22;42279;51.388;7.000;2023-06-26T08:16:42;30.20;77.90
2314;DHT22;42279;51.388;7.000;2023-06-26T08:19:09;29.90;78.60
2314;DHT22;42279;51.388;7.000;2023-06-26T08:21:35;29.20;81.10
2314;DHT22;42279;51.388;7.000;2023-06-26T08:24:00;28.50;83.80
2314;DHT22;42279;51.388;7.000;2023-06-26T08:26:26;27.50;88.10
2314;DHT22;42279;51.388;7.000;2023-06-26T08:28:51;27.40;90.50
2314;DHT22;42279;51.388;7.000;2023-06-26T08:31:17;26.90;91.10
2314;DHT22;42279;51.388;7.000;2023-06-26T08:33:43;27.00;92.20
2314;DHT22;42279;51.388;7.000;2023-06-26T08:36:09;27.30;91.50
2314;DHT22;42279;51.388;7.000;2023-06-26T08:38:40;27.30;91.50
2314;DHT22;42279;51.388;7.000;2023-06-26T08:41:09;27.20;92.10
2314;DHT22;42279;51.388;7.000;2023-06-26T08:43:35;27.30;91.70
2314;DHT22;42279;51.388;7.000;2023-06-26T08:46:02;27.00;92.40
2314;DHT22;42279;51.388;7.000;2023-06-26T08:48:30;27.00;92.00
2314;DHT22;42279;51.388;7.000;2023-06-26T08:50:57;26.70;92.60
2314;DHT22;42279;51.388;7.000;2023-06-26T08:56:19;27.40;89.90
2314;DHT22;42279;51.388;7.000;2023-06-26T08:58:47;27.20;90.30
2314;DHT22;42279;51.388;7.000;2023-06-26T09:01:13;27.30;90.50
2314;DHT22;42279;51.388;7.000;2023-06-26T09:03:39;27.90;87.80
2314;DHT22;42279;51.388;7.000;2023-06-26T09:06:07;28.30;85.90
2314;DHT22;42279;51.388;7.000;2023-06-26T09:08:32;28.40;84.10
2314;DHT22;42279;51.388;7.000;2023-06-26T09:10:58;29.10;82.90
2314;DHT22;42279;51.388;7.000;2023-06-26T09:13:24;29.60;77.70
2314;DHT22;42279;51.388;7.000;2023-06-26T09:15:53;29.30;79.50
2314;DHT22;42279;51.388;7.000;2023-06-26T09:18:20;29.50;77.50
2314;DHT22;42279;51.388;7.000;2023-06-26T09:20:46;29.10;74.50
2314;DHT22;42279;51.388;7.000;2023-06-26T09:23:12;28.60;76.40
2314;DHT22;42279;51.388;7.000;2023-06-26T09:25:40;28.50;74.60
2314;DHT22;42279;51.388;7.000;2023-06-26T09:28:06;29.00;75.10
2314;DHT22;42279;51.388;7.000;2023-06-26T09:30:35;30.00;72.10
2314;DHT22;42279;51.388;7.000;2023-06-26T09:33:20;30.60;68.30
2314;DHT22;42279;51.388;7.000;2023-06-26T09:35:46;30.70;65.30
2314;DHT22;42279;51.388;7.000;2023-06-26T09:38:13;31.30;60.50
2314;DHT22;42279;51.388;7.000;2023-06-26T09:40:40;31.50;60.50
2314;DHT22;42279;51.388;7.000;2023-06-26T09:43:07;31.10;59.60
2314;DHT22;42279;51.388;7.000;2023-06-26T09:45:34;31.00;60.30
2314;DHT22;42279;51.388;7.000;2023-06-26T09:48:02;31.60;59.70
2314;DHT22;42279;51.388;7.000;2023-06-26T09:50:28;32.40;58.50
2314;DHT22;42279;51.388;7.000;2023-06-26T09:52:55;32.20;62.80
2314;DHT22;42279;51.388;7.000;2023-06-26T09:55:21;31.80;63.90
2314;DHT22;42279;51.388;7.000;2023-06-26T09:57:49;30.90;62.10
2314;DHT22;42279;51.388;7.000;2023-06-26T10:00:15;30.30;64.70
2314;DHT22;42279;51.388;7.000;2023-06-26T10:02:41;30.50;64.40
2314;DHT22;42279;51.388;7.000;2023-06-26T10:05:07;31.00;64.40
2314;DHT22;42279;51.388;7.000;2023-06-26T10:07:33;31.90;59.80
2314;DHT22;42279;51.388;7.000;2023-06-26T10:10:00;32.70;59.10
2314;DHT22;42279;51.388;7.000;2023-06-26T10:12:31;33.60;57.60
2314;DHT22;42279;51.388;7.000;2023-06-26T10:14:57;33.30;56.10
2314;DHT22;42279;51.388;7.000;2023-06-26T10:17:28;33.30;54.50
2314;DHT22;42279;51.388;7.000;2023-06-26T10:19:56;33.30;54.50
2314;DHT22;42279;51.388;7.000;2023-06-26T10:22:28;33.60;54.30
2314;DHT22;42279;51.388;7.000;2023-06-26T10:24:56;33.00;54.20
2314;DHT22;42279;51.388;7.000;2023-06-26T10:27:27;31.90;54.60
2314;DHT22;42279;51.388;7.000;2023-06-26T10:29:55;31.10;56.10
2314;DHT22;42279;51.388;7.000;2023-06-26T10:32:24;30.90;56.30
2314;DHT22;42279;51.388;7.000;2023-06-26T10:34:51;31.50;55.80
2314;DHT22;42279;51.388;7.000;2023-06-26T10:37:17;32.10;56.40
2314;DHT22;42279;51.388;7.000;2023-06-26T10:42:11;33.70;54.30
2314;DHT22;42279;51.388;7.000;2023-06-26T10:44:44;34.70;52.30
2314;DHT22;42279;51.388;7.000;2023-06-26T10:47:11;33.30;52.30
2314;DHT22;42279;51.388;7.000;2023-06-26T10:49:37;32.70;52.00
2314;DHT22;42279;51.388;7.000;2023-06-26T10:52:07;31.80;53.00
2314;DHT22;42279;51.388;7.000;2023-06-26T10:54:33;31.60;53.30
2314;DHT22;42279;51.388;7.000;2023-06-26T10:56:59;31.40;53.70
2314;DHT22;42279;51.388;7.000;2023-06-26T10:59:28;30.40;54.80
2314;DHT22;42279;51.388;7.000;2023-06-26T11:04:46;31.30;55.30
2314;DHT22;42279;51.388;7.000;2023-06-26T11:07:22;32.10;53.20
2314;DHT22;42279;51.388;7.000;2023-06-26T11:10:00;32.80;52.80
2314;DHT22;42279;51.388;7.000;2023-06-26T11:12:37;32.80;53.30
2314;DHT22;42279;51.388;7.000;2023-06-26T11:15:11;32.20;53.70
2314;DHT22;42279;51.388;7.000;2023-06-26T11:17:38;31.30;53.80
2314;DHT22;42279;51.388;7.000;2023-06-26T11:20:06;31.10;54.80
2314;DHT22;42279;51.388;7.000;2023-06-26T11:22:35;31.70;54.40
2314;DHT22;42279;51.388;7.000;2023-06-26T11:25:01;31.10;53.90
2314;DHT22;42279;51.388;7.000;2023-06-26T11:30:07;29.30;54.00
2314;DHT22;42279;51.388;7.000;2023-06-26T11:32:33;29.90;53.20
2314;DHT22;42279;51.388;7.000;2023-06-26T11:34:59;30.20;53.40
2314;DHT22;42279;51.388;7.000;2023-06-26T11:37:25;31.30;53.30
2314;DHT22;42279;51.388;7.000;2023-06-26T11:39:51;32.10;51.60
2314;DHT22;42279;51.388;7.000;2023-06-26T11:42:18;32.00;51.20
2314;DHT22;42279;51.388;7.000;2023-06-26T11:44:43;32.70;50.50
2314;DHT22;42279;51.388;7.000;2023-06-26T11:47:18;32.90;49.40
2314;DHT22;42279;51.388;7.000;2023-06-26T11:49:48;32.00;49.10
2314;DHT22;42279;51.388;7.000;2023-06-26T11:52:14;31.50;50.20
2314;DHT22;42279;51.388;7.000;2023-06-26T11:54:41;31.40;48.90
2314;DHT22;42279;51.388;7.000;2023-06-26T11:57:07;32.00;48.80
2314;DHT22;42279;51.388;7.000;2023-06-26T11:59:37;32.20;48.70
2314;DHT22;42279;51.388;7.000;2023-06-26T12:02:10;31.50;49.40
2314;DHT22;42279;51.388;7.000;2023-06-26T12:04:41;31.60;49.20
2314;DHT22;42279;51.388;7.000;2023-06-26T12:07:08;31.30;48.50
2314;DHT22;42279;51.388;7.000;2023-06-26T12:09:42;31.30;47.30
2314;DHT22;42279;51.388;7.000;2023-06-26T12:12:10;31.80;47.50
2314;DHT22;42279;51.388;7.000;2023-06-26T12:14:36;31.80;47.70
2314;DHT22;42279;51.388;7.000;2023-06-26T12:17:10;31.90;47.80
2314;DHT22;42279;51.388;7.000;2023-06-26T12:19:42;30.80;48.00
2314;DHT22;42279;51.388;7.000;2023-06-26T12:22:09;29.80;48.60
2314;DHT22;42279;51.388;7.000;2023-06-26T12:24:38;29.30;49.30
2314;DHT22;42279;51.388;7.000;2023-06-26T12:27:12;29.30;49.20
2314;DHT22;42279;51.388;7.000;2023-06-26T12:29:40;29.80;49.20
2314;DHT22;42279;51.388;7.000;2023-06-26T12:32:10;30.60;48.70
2314;DHT22;42279;51.388;7.000;2023-06-26T12:34:39;31.10;47.80
2314;DHT22;42279;51.388;7.000;2023-06-26T12:37:08;31.30;46.50
2314;DHT22;42279;51.388;7.000;2023-06-26T12:42:19;31.30;46.10
2314;DHT22;42279;51.388;7.000;2023-06-26T12:44:46;31.50;45.80
2314;DHT22;42279;51.388;7.000;2023-06-26T12:47:15;30.80;45.10
2314;DHT22;42279;51.388;7.000;2023-06-26T12:49:51;30.60;45.40
2314;DHT22;42279;51.388;7.000;2023-06-26T12:52:17;31.00;45.80
2314;DHT22;42279;51.388;7.000;2023-06-26T12:54:44;31.60;45.10
2314;DHT22;42279;51.388;7.000;2023-06-26T12:57:12;31.70;44.40
2314;DHT22;42279;51.388;7.000;2023-06-26T12:59:43;31.00;45.80
2314;DHT22;42279;51.388;7.000;2023-06-26T13:02:09;30.90;45.70
2314;DHT22;42279;51.388;7.000;2023-06-26T13:04:41;30.70;45.80
2314;DHT22;42279;51.388;7.000;2023-06-26T13:07:10;31.80;46.00
2314;DHT22;42279;51.388;7.000;2023-06-26T13:09:37;32.30;44.40
2314;DHT22;42279;51.388;7.000;2023-06-26T13:12:04;32.30;44.30
2314;DHT22;42279;51.388;7.000;2023-06-26T13:14:31;32.80;44.70
2314;DHT22;42279;51.388;7.000;2023-06-26T13:16:57;33.40;44.20
2314;DHT22;42279;51.388;7.000;2023-06-26T13:19:22;34.10;44.10
2314;DHT22;42279;51.388;7.000;2023-06-26T13:21:48;34.80;43.30
2314;DHT22;42279;51.388;7.000;2023-06-26T13:24:14;34.80;42.50
2314;DHT22;42279;51.388;7.000;2023-06-26T13:26:39;34.60;41.90
2314;DHT22;42279;51.388;7.000;2023-06-26T13:29:05;33.20;42.40
2314;DHT22;42279;51.388;7.000;2023-06-26T13:31:31;31.60;42.40
2314;DHT22;42279;51.388;7.000;2023-06-26T13:33:58;31.20;43.10
2314;DHT22;42279;51.388;7.000;2023-06-26T13:36:24;30.90;43.60
2314;DHT22;42279;51.388;7.000;2023-06-26T13:38:50;31.30;42.90
2314;DHT22;42279;51.388;7.000;2023-06-26T13:41:24;31.60;42.30
2314;DHT22;42279;51.388;7.000;2023-06-26T13:43:50;31.40;43.30
2314;DHT22;42279;51.388;7.000;2023-06-26T13:46:16;30.70;43.40
2314;DHT22;42279;51.388;7.000;2023-06-26T13:48:43;30.00;43.60
2314;DHT22;42279;51.388;7.000;2023-06-26T13:51:09;29.70;44.10
2314;DHT22;42279;51.388;7.000;2023-06-26T13:53:35;29.10;44.30
2314;DHT22;42279;51.388;7.000;2023-06-26T13:56:00;28.50;45.10
2314;DHT22;42279;51.388;7.000;2023-06-26T13:58:26;29.20;45.20
2314;DHT22;42279;51.388;7.000;2023-06-26T14:00:53;30.40;44.90
2314;DHT22;42279;51.388;7.000;2023-06-26T14:03:19;31.00;44.30
2314;DHT22;42279;51.388;7.000;2023-06-26T14:05:45;30.80;43.90
2314;DHT22;42279;51.388;7.000;2023-06-26T14:08:11;30.60;44.30
2314;DHT22;42279;51.388;7.000;2023-06-26T14:10:37;30.30;44.10
2314;DHT22;42279;51.388;7.000;2023-06-26T14:13:03;30.30;43.70
2314;DHT22;42279;51.388;7.000;2023-06-26T14:15:30;30.00;43.90
2314;DHT22;42279;51.388;7.000;2023-06-26T14:20:33;30.10;43.90
2314;DHT22;42279;51.388;7.000;2023-06-26T14:22:59;30.60;43.50
2314;DHT22;42279;51.388;7.000;2023-06-26T14:25:25;30.50;43.20
2314;DHT22;42279;51.388;7.000;2023-06-26T14:27:54;30.90;43.40
2314;DHT22;42279;51.388;7.000;2023-06-26T14:30:19;31.30;43.10
2314;DHT22;42279;51.388;7.000;2023-06-26T14:32:45;31.50;43.10
2314;DHT22;42279;51.388;7.000;2023-06-26T14:35:10;31.40;41.60
2314;DHT22;42279;51.388;7.000;2023-06-26T14:37:36;30.70;42.50
2314;DHT22;42279;51.388;7.000;2023-06-26T14:40:06;30.50;42.50
2314;DHT22;42279;51.388;7.000;2023-06-26T14:42:31;29.90;43.10
2314;DHT22;42279;51.388;7.000;2023-06-26T14:44:57;29.80;42.90
2314;DHT22;42279;51.388;7.000;2023-06-26T14:47:22;29.90;43.40
2314;DHT22;42279;51.388;7.000;2023-06-26T14:49:48;30.10;43.10
2314;DHT22;42279;51.388;7.000;2023-06-26T14:52:14;29.60;43.20
2314;DHT22;42279;51.388;7.000;2023-06-26T14:54:39;29.30;43.50
2314;DHT22;42279;51.388;7.000;2023-06-26T14:57:06;28.80;43.40
2314;DHT22;42279;51.388;7.000;2023-06-26T14:59:32;28.20;43.00
2314;DHT22;42279;51.388;7.000;2023-06-26T15:01:57;27.80;43.60
2314;DHT22;42279;51.388;7.000;2023-06-26T15:04:23;27.50;43.60
2314;DHT22;42279;51.388;7.000;2023-06-26T15:06:49;27.30;43.90
2314;DHT22;42279;51.388;7.000;2023-06-26T15:09:14;27.50;44.30
2314;DHT22;42279;51.388;7.000;2023-06-26T15:11:40;27.50;44.50
2314;DHT22;42279;51.388;7.000;2023-06-26T15:14:08;27.50;44.60
2314;DHT22;42279;51.388;7.000;2023-06-26T15:16:34;27.40;44.50
2314;DHT22;42279;51.388;7.000;2023-06-26T15:18:59;27.30;43.50
2314;DHT22;42279;51.388;7.000;2023-06-26T15:21:28;27.30;43.00
2314;DHT22;42279;51.388;7.000;2023-06-26T15:23:54;27.20;42.70
2314;DHT22;42279;51.388;7.000;2023-06-26T15:26:19;27.10;43.40
2314;DHT22;42279;51.388;7.000;2023-06-26T15:28:45;27.20;43.90
2314;DHT22;42279;51.388;7.000;2023-06-26T15:31:10;27.20;43.90
2314;DHT22;42279;51.388;7.000;2023-06-26T15:33:36;27.40;43.60
2314;DHT22;42279;51.388;7.000;2023-06-26T15:36:01;27.30;44.90
2314;DHT22;42279;51.388;7.000;2023-06-26T15:38:30;27.20;46.30
2314;DHT22;42279;51.388;7.000;2023-06-26T15:40:55;27.10;47.00
2314;DHT22;42279;51.388;7.000;2023-06-26T15:43:22;27.10;47.40
2314;DHT22;42279;51.388;7.000;2023-06-26T15:45:47;27.10;47.70
2314;DHT22;42279;51.388;7.000;2023-06-26T15:48:13;27.00;47.20
2314;DHT22;42279;51.388;7.000;2023-06-26T15:50:38;27.00;47.50
2314;DHT22;42279;51.388;7.000;2023-06-26T15:53:04;27.00;46.70
2314;DHT22;42279;51.388;7.000;2023-06-26T15:55:30;27.00;46.80
2314;DHT22;42279;51.388;7.000;2023-06-26T15:57:55;27.20;46.40
2314;DHT22;42279;51.388;7.000;2023-06-26T16:00:21;27.00;45.50
2314;DHT22;42279;51.388;7.000;2023-06-26T16:02:47;26.80;45.40
2314;DHT22;42279;51.388;7.000;2023-06-26T16:05:13;26.50;45.80
2314;DHT22;42279;51.388;7.000;2023-06-26T16:07:39;26.30;46.30
2314;DHT22;42279;51.388;7.000;2023-06-26T16:10:05;26.20;46.80